Terminal Aerodrome Forecast
Issued by NWS

Home | Current Version | Previous Version | Text Only | Print | Product List | Glossary On
Versions: 1 2 3 4 5 6 7 8 9 10 11 12 13 14 15 16 17
000
FTUS43 KSGF 280520
TAFJLN
TAF
KJLN 280520Z 2806/2906 17012KT P6SM FEW250
     FM281400 19018G27KT P6SM SCT250
     FM290000 18011KT P6SM FEW200=

USA.gov is the U.S. government's official web portal to all federal, state and local government web resources and services.